Date,TemperatureHighF,TemperatureAvgF,TemperatureLowF,DewpointHighF,DewpointAvgF,DewpointLowF,HumidityHigh,HumidityAvg,HumidityLow,PressureMaxIn,PressureMinIn,WindSpeedMaxMPH,WindSpeedAvgMPH,GustSpeedMaxMPH,PrecipitationSumIn
2013-9-1,84.6,71.3,63.8,64.7,53.9,43.2,77,55,43,29.86,29.82,6,1,7,0.00
2013-9-2,78.4,67.6,59.9,61.5,57.3,52.0,92,70,53,29.89,29.83,7,2,9,0.00
2013-9-3,81.1,66.0,58.3,57.7,51.5,45.4,93,62,37,29.94,29.86,8,2,8,0.01
2013-9-4,77.6,65.0,57.8,54.9,51.2,44.0,84,62,43,29.97,29.90,8,2,9,0.00
2013-9-5,77.5,63.8,53.2,57.6,50.3,37.9,88,64,40,29.96,29.89,8,2,10,0.00
2013-9-6,89.5,72.9,58.9,52.7,45.6,30.7,62,39,26,29.93,29.79,6,1,7,0.00
2013-9-7,90.6,77.1,70.8,54.4,46.4,38.0,46,34,27,29.81,29.76,3,0,6,0.00
2013-9-8,88.2,76.8,68.6,59.7,50.6,42.9,47,40,31,29.79,29.71,7,0,8,0.00
2013-9-9,90.3,80.1,72.6,57.4,48.2,26.0,49,34,14,29.73,29.66,6,1,9,0.00
2013-9-10,79.4,63.4,53.0,56.2,47.7,22.2,93,64,12,29.84,29.66,4,0,5,0.00
2013-9-11,70.1,58.6,52.4,57.1,53.7,50.7,95,85,62,29.96,29.84,3,0,3,0.00
2013-9-12,79.3,64.1,53.5,61.5,56.9,52.1,98,79,53,29.92,29.85,4,0,6,0.00
2013-9-13,82.3,69.9,55.6,61.0,49.1,30.7,87,52,21,29.85,29.72,6,1,11,0.00
2013-9-14,80.4,69.1,61.2,58.2,48.5,23.5,74,49,18,29.73,29.68,5,1,8,0.00
2013-9-15,76.8,64.7,55.0,56.2,52.2,46.2,82,65,46,29.79,29.70,7,2,8,0.00
2013-9-16,80.5,66.7,57.3,59.4,53.7,46.5,79,64,47,29.82,29.75,8,1,9,0.00
2013-9-17,70.7,59.6,51.2,54.3,49.1,43.4,92,70,42,29.83,29.77,7,1,11,0.00
2013-9-18,76.7,66.3,58.0,48.9,43.3,36.4,70,45,25,29.84,29.78,10,3,12,0.00
2013-9-19,87.9,73.9,64.0,46.5,39.2,32.5,41,29,18,29.79,29.70,6,1,9,0.00
2013-9-20,75.5,64.5,57.0,57.2,48.0,32.7,92,58,29,29.81,29.68,2,0,5,0.00
2013-9-21,57.2,54.4,49.7,56.4,53.3,47.5,98,96,91,29.86,29.76,4,0,4,0.38
2013-9-22,67.0,56.3,49.5,56.4,48.2,44.3,94,76,47,29.95,29.86,7,2,11,0.00
2013-9-23,77.2,65.1,55.9,55.8,50.1,45.6,73,59,42,29.96,29.89,8,2,10,0.00
2013-9-24,69.3,61.6,52.8,55.0,48.6,41.4,76,63,43,29.92,29.86,8,2,16,0.00
2013-9-25,62.9,54.5,49.5,43.0,41.3,38.8,76,62,44,29.87,29.76,12,2,15,0.00
2013-9-26,64.3,55.6,47.2,42.6,36.9,30.4,81,52,28,29.93,29.76,8,1,13,0.00
2013-9-27,69.4,61.2,55.4,36.4,32.9,28.6,43,35,23,30.03,29.93,11,3,17,0.00
2013-9-28,79.9,67.4,58.4,41.1,35.6,28.0,42,32,22,30.02,29.95,8,1,8,0.00
2013-9-29,79.1,66.0,57.7,55.2,46.2,33.7,88,51,35,30.02,29.97,7,1,7,0.00
2013-9-30,72.6,62.5,56.4,57.7,54.7,51.5,90,77,56,30.01,29.91,7,2,9,0.00